Latest Weather Observations for Scoresby

IDV60801

Issued at 5:03 pm EDT Friday 24 March 2017 (issued every 30 minutes, with the page automatically refreshed every 10 minutes)

About weather observations | Map of weather stations | Latest weather observations for VIC | Other Formats
Station Details ID: 086104 Name: SCORESBY RESEARCH INSTITUTE Lat: -37.87 Lon: 145.26 Height: 80.0 m
Data from the previous 72 hours. | See also: Recent months at Scoresby
Date/Time
EDT
Temp
°C
App
Temp
°C
Dew
Point
°C
Rel
Hum
%
Delta-T
°C
Wind Press
QNH
hPa
Press
MSL
hPa
Rain since
9am
mm
Dir  Spd
km/h
Gust
km/h
Spd
kts
Gust
kts
24/05:00pm 24.7 24.8 13.9 51 6.4 S 6 7 3 4 - - -
24/04:30pm 24.5 25.6 13.4 50 6.5 CALM 0 4 0 2 - - 0.0
24/04:00pm 25.7 26.4 14.5 50 6.7 SW 4 9 2 5 - - 0.0
24/03:30pm 24.8 24.8 13.7 50 6.5 SE 6 11 3 6 - - 0.0
24/03:00pm 24.3 25.1 13.8 52 6.2 SW 2 9 1 5 - - 0.0
24/02:30pm 24.5 25.0 14.0 52 6.2 SSE 4 9 2 5 - - 0.0
24/02:00pm 24.5 24.6 14.0 52 6.2 SSE 6 11 3 6 - - 0.0
24/01:30pm 23.2 23.0 13.7 55 5.6 S 7 13 4 7 - - 0.0
24/01:00pm 22.8 22.3 13.8 57 5.3 SSE 9 17 5 9 - - 0.0
24/12:30pm 21.4 21.8 13.8 62 4.4 SSW 4 9 2 5 - - 0.0
24/12:00pm 21.2 21.9 14.4 65 4.0 S 4 11 2 6 - - 0.0
24/11:30am 21.2 22.3 14.6 66 3.9 SE 2 9 1 5 - - 0.0
24/11:00am 18.8 19.5 13.4 71 3.1 NNE 2 6 1 3 - - 0.0
24/10:30am 17.8 18.4 13.1 74 2.6 NE 2 6 1 3 - - 0.0
24/10:00am 16.5 16.7 13.0 80 2.0 NNE 4 7 2 4 - - 0.0
24/09:30am 16.3 16.1 13.6 84 1.5 NE 7 13 4 7 - - 0.0
24/09:00am 14.2 14.3 12.6 90 0.9 NE 4 9 2 5 - - 0.0
24/08:30am 13.6 13.4 13.0 96 0.3 NNE 6 7 3 4 - - 0.0
24/08:00am 11.7 12.1 11.2 97 0.3 CALM 0 0 0 0 - - 0.0
24/07:30am 11.1 11.3 10.5 96 0.3 CALM 0 0 0 0 - - 0.0
24/07:00am 11.2 11.4 10.6 96 0.3 CALM 0 0 0 0 - - 0.0
24/06:30am 11.8 12.2 11.2 96 0.3 CALM 0 0 0 0 - - 0.0
24/06:00am 11.5 11.4 10.7 95 0.4 ENE 2 6 1 3 - - 0.0
24/05:30am 11.8 12.1 11.0 95 0.4 CALM 0 2 0 1 - - 0.0
24/05:00am 11.9 12.2 10.8 93 0.6 CALM 0 0 0 0 - - 0.0
24/04:30am 12.8 13.2 11.4 91 0.7 CALM 0 0 0 0 - - 0.0
24/04:00am 13.8 13.6 11.8 88 1.1 SE 4 6 2 3 - - 0.0
24/03:30am 13.9 14.3 11.4 85 1.3 CALM 0 4 0 2 - - 0.0
24/03:00am 15.0 15.2 12.0 82 1.6 SE 2 7 1 4 - - 0.0
24/02:30am 15.7 14.4 12.5 81 1.8 SSE 11 19 6 10 - - 0.0
24/02:00am 15.8 15.4 12.5 81 1.8 SSE 6 13 3 7 - - 0.0
24/01:30am 16.1 15.6 12.5 79 2.0 SE 7 17 4 9 - - 0.0
24/01:00am 16.2 15.3 12.6 79 2.0 SSE 9 20 5 11 - - 0.0
24/12:30am 15.9 15.4 12.6 81 1.8 SE 7 15 4 8 - - 0.0
24/12:00am 16.3 15.1 12.8 80 1.9 SSE 11 20 6 11 - - 0.0
 
Date/Time
EDT
Temp
°C
App
Temp
°C
Dew
Point
°C
Rel
Hum
%
Delta-T
°C
Wind Press
QNH
hPa
Press
MSL
hPa
Rain since
9am
mm
Dir  Spd
km/h
Gust
km/h
Spd
kts
Gust
kts
23/11:30pm 16.6 15.8 12.9 79 2.1 SE 9 20 5 11 - - 0.0
23/11:00pm 16.9 16.1 13.0 78 2.2 SE 9 20 5 11 - - 0.0
23/10:30pm 17.2 16.2 13.3 78 2.2 SE 11 26 6 14 - - 0.0
23/10:00pm 17.3 16.7 13.4 78 2.2 SE 9 17 5 9 - - 0.0
23/09:30pm 17.6 16.6 13.5 77 2.3 SE 11 22 6 12 - - 0.0
23/09:00pm 17.9 16.5 13.4 75 2.6 SE 13 24 7 13 - - 0.0
23/08:30pm 18.3 17.0 13.6 74 2.7 SE 13 26 7 14 - - 0.0
23/08:00pm 18.7 17.4 13.6 72 2.9 SE 13 28 7 15 - - 0.0
23/07:30pm 19.3 18.1 13.9 71 3.1 SSE 13 24 7 13 - - 0.0
23/07:00pm 20.3 18.3 14.0 67 3.7 SSE 17 28 9 15 - - 0.0
23/06:30pm 21.3 19.4 14.2 64 4.1 SE 17 33 9 18 - - 0.0
23/06:00pm 22.2 19.8 13.8 59 4.9 SSE 19 32 10 17 - - 0.0
23/05:30pm 23.3 21.2 13.5 54 5.7 SSE 17 35 9 19 - - 0.0
23/05:00pm 23.4 21.3 13.6 54 5.7 SE 17 28 9 15 - - 0.0
23/04:30pm 23.6 21.2 13.8 54 5.7 SSE 19 32 10 17 - - 0.0
23/04:00pm 23.8 21.6 13.4 52 6.1 SSE 17 30 9 16 - - 0.0
23/03:30pm 23.7 21.9 13.3 52 6.0 ESE 15 26 8 14 - - 0.0
23/03:00pm 23.8 22.6 13.9 54 5.8 SE 13 28 7 15 - - 0.0
23/02:30pm 23.9 22.0 14.3 55 5.7 SE 17 30 9 16 - - 0.0
23/02:00pm 23.3 21.7 13.8 55 5.6 SSE 15 32 8 17 - - 0.0
23/01:30pm 23.0 21.0 13.8 56 5.4 SSE 17 32 9 17 - - 0.0
23/01:00pm 22.6 20.5 13.7 57 5.2 SE 17 30 9 16 - - 0.0
23/12:30pm 22.9 21.2 13.7 56 5.4 SE 15 28 8 15 - - 0.0
23/12:00pm 21.8 19.6 13.4 59 4.9 SSE 17 28 9 15 - - 0.0
23/11:30am 20.8 18.1 13.0 61 4.5 SE 19 30 10 16 - - 0.0
23/11:00am 20.7 18.5 13.2 62 4.3 ESE 17 30 9 16 - - 0.0
23/10:30am 19.8 17.5 13.0 65 3.9 SE 17 30 9 16 - - 0.0
23/10:00am 19.2 17.0 13.2 68 3.4 SE 17 32 9 17 - - 0.0
23/09:30am 18.6 16.8 13.2 71 3.1 SE 15 28 8 15 - - 0.0
23/09:00am 17.3 15.4 13.0 76 2.4 SE 15 32 8 17 - - 0.2
23/08:30am 17.3 16.4 13.6 79 2.1 SSE 11 22 6 12 - - 0.2
23/08:00am 16.6 15.5 13.1 80 2.0 SE 11 20 6 11 - - 0.2
23/07:30am 16.5 15.4 13.0 80 2.0 SE 11 22 6 12 - - 0.2
23/07:00am 16.6 15.1 13.1 80 2.0 SE 13 19 7 10 - - 0.2
23/06:30am 16.5 16.2 13.2 81 1.9 SSE 7 17 4 9 - - 0.2
23/06:00am 16.4 15.4 13.5 83 1.6 S 11 22 6 12 - - 0.2
23/05:30am 16.2 15.7 13.7 85 1.4 SSW 9 22 5 12 - - 0.2
23/05:00am 16.1 15.1 13.4 84 1.5 S 11 17 6 9 - - 0.2
23/04:30am 16.3 14.3 12.8 80 1.9 SSE 15 26 8 14 - - 0.2
23/04:00am 16.4 15.7 13.1 81 1.8 SSW 9 17 5 9 - - 0.2
23/03:30am 16.2 15.9 13.3 83 1.6 SSW 7 11 4 6 - - 0.2
23/03:00am 16.4 15.4 13.3 82 1.7 S 11 20 6 11 - - 0.2
23/02:30am 16.4 15.7 13.1 81 1.8 SSE 9 19 5 10 - - 0.2
23/02:00am 16.3 15.2 13.0 81 1.8 SE 11 26 6 14 - - 0.2
23/01:30am 16.3 14.4 13.0 81 1.8 SSE 15 26 8 14 - - 0.2
23/01:00am 16.5 14.6 13.0 80 2.0 SSE 15 28 8 15 - - 0.2
23/12:30am 16.6 13.9 12.9 79 2.1 SSE 19 30 10 16 - - 0.2
23/12:00am 16.9 14.6 13.0 78 2.2 SE 17 35 9 19 - - 0.2
 
Date/Time
EDT
Temp
°C
App
Temp
°C
Dew
Point
°C
Rel
Hum
%
Delta-T
°C
Wind Press
QNH
hPa
Press
MSL
hPa
Rain since
9am
mm
Dir  Spd
km/h
Gust
km/h
Spd
kts
Gust
kts
22/11:30pm 17.1 15.6 13.2 78 2.2 SE 13 32 7 17 - - 0.2
22/11:00pm 17.3 16.0 13.6 79 2.1 SSE 13 24 7 13 - - 0.2
22/10:30pm 17.3 16.9 14.2 82 1.8 S 9 19 5 10 - - 0.2
22/10:00pm 17.4 16.4 13.3 77 2.3 SE 11 20 6 11 - - 0.2
22/09:30pm 17.3 16.2 13.0 76 2.4 SSE 11 22 6 12 - - 0.2
22/09:00pm 17.7 16.6 13.2 75 2.5 SSE 11 26 6 14 - - 0.2
22/08:30pm 17.9 16.8 14.4 80 2.0 SSE 13 20 7 11 - - 0.2
22/08:00pm 18.1 16.5 14.0 77 2.4 SSE 15 28 8 15 - - 0.2
22/07:30pm 18.2 16.2 13.9 76 2.5 SSE 17 33 9 18 - - 0.2
22/07:00pm 18.5 16.9 14.0 75 2.6 SE 15 24 8 13 - - 0.2
22/06:30pm 19.1 17.2 14.1 73 2.9 SSE 17 33 9 18 - - 0.2
22/06:00pm 19.7 18.4 14.7 73 2.9 SE 15 32 8 17 - - 0.2
22/05:30pm 20.2 18.0 14.3 69 3.4 SSE 19 35 10 19 - - 0.2
22/05:00pm 21.2 19.0 14.8 67 3.8 SE 20 35 11 19 - - 0.2
22/04:30pm 21.4 19.2 14.8 66 3.9 SE 20 35 11 19 - - 0.2
22/04:00pm 21.4 19.4 15.5 69 3.5 SE 20 43 11 23 - - 0.2
22/03:30pm 20.7 18.9 15.5 72 3.1 SSE 19 33 10 18 - - 0.2
22/03:00pm 20.0 18.5 15.2 74 2.8 SSE 17 30 9 16 - - 0.2
22/02:30pm 20.0 19.0 15.6 76 2.6 SSE 15 30 8 16 - - 0.2
22/02:00pm 19.7 18.2 15.4 76 2.5 SSE 17 28 9 15 - - 0.2
22/01:30pm 19.7 17.9 15.4 76 2.5 SSE 19 33 10 18 - - 0.2
22/01:00pm 19.7 17.7 15.6 77 2.4 SSE 20 43 11 23 - - 0.2
22/12:30pm 19.6 18.5 16.3 81 2.0 SSE 17 30 9 16 - - 0.2
22/12:00pm 19.1 18.7 16.1 83 1.8 SSE 13 30 7 16 - - 0.2
22/11:30am 18.4 18.0 16.2 87 1.3 SSE 13 28 7 15 - - 0.2
22/11:00am 18.2 18.0 16.7 91 0.9 SSE 13 22 7 12 - - 0.2
22/10:30am 17.6 17.4 16.6 94 0.6 SSE 13 22 7 12 - - 0.2
22/10:00am 17.5 17.7 16.7 95 0.5 S 11 30 6 16 - - 0.2
22/09:30am 17.4 17.9 16.6 95 0.5 SSE 9 17 5 9 - - 0.0
22/09:00am 17.3 17.5 16.7 96 0.4 S 11 20 6 11 - - 14.6
22/08:30am 17.2 17.7 16.6 96 0.4 S 9 19 5 10 - - 14.6
22/08:00am 17.2 18.1 16.6 96 0.4 SSE 7 13 4 7 - - 14.2
22/07:30am 17.1 17.9 16.3 95 0.5 SSE 7 17 4 9 - - 14.2
22/07:00am 17.1 17.1 16.3 95 0.5 S 11 20 6 11 - - 14.2
22/06:30am 17.6 17.9 17.0 96 0.4 S 11 17 6 9 - - 14.2
22/06:00am 17.8 19.0 17.3 97 0.3 SSW 7 13 4 7 - - 14.2
22/05:30am 17.9 19.1 17.4 97 0.3 SSW 7 13 4 7 - - 14.2
22/05:00am 18.1 19.4 17.5 96 0.4 SW 7 11 4 6 - - 14.2
22/04:30am 18.8 20.5 18.1 96 0.4 SW 6 11 3 6 - - 14.2
22/04:00am 19.8 21.7 19.0 95 0.5 NW 7 15 4 8 - - 14.0
22/03:30am 19.9 22.4 19.1 95 0.5 NW 4 7 2 4 - - 14.0
22/03:00am 20.0 22.2 19.2 95 0.5 N 6 13 3 7 - - 14.0
22/02:30am 20.0 22.1 19.0 94 0.6 NNW 6 9 3 5 - - 14.0
22/02:00am 20.1 22.3 19.1 94 0.6 NNW 6 11 3 6 - - 14.0
22/01:30am 20.2 22.6 18.9 92 0.8 NNW 4 7 2 4 - - 14.0
22/01:00am 20.3 22.8 19.0 92 0.8 NNW 4 7 2 4 - - 14.0
22/12:30am 20.3 22.8 19.1 93 0.8 N 4 11 2 6 - - 14.0
22/12:00am 20.2 22.3 19.0 93 0.8 NNW 6 9 3 5 - - 14.0
 
Date/Time
EDT
Temp
°C
App
Temp
°C
Dew
Point
°C
Rel
Hum
%
Delta-T
°C
Wind Press
QNH
hPa
Press
MSL
hPa
Rain since
9am
mm
Dir  Spd
km/h
Gust
km/h
Spd
kts
Gust
kts
21/11:30pm 20.3 21.8 19.0 92 0.8 NW 9 17 5 9 - - 14.0
21/11:00pm 20.6 23.0 18.9 90 1.1 NNW 4 9 2 5 - - 14.0
21/10:30pm 21.4 25.0 19.7 90 1.1 CALM 0 2 0 1 - - 14.0
21/10:00pm 21.6 23.8 19.5 88 1.3 NW 7 15 4 8 - - 14.0
21/09:30pm 21.9 24.9 20.9 94 0.7 NNW 6 11 3 6 - - 14.0
21/09:00pm 21.8 25.5 20.8 94 0.7 N 2 6 1 3 - - 14.0
21/08:30pm 21.7 25.9 20.9 95 0.5 CALM 0 2 0 1 - - 14.0
21/08:00pm 21.6 25.0 20.9 96 0.5 NE 4 6 2 3 - - 14.0
21/07:30pm 21.8 25.9 20.8 94 0.7 CALM 0 0 0 0 - - 14.0
21/07:00pm 21.9 26.0 20.7 93 0.8 CALM 0 0 0 0 - - 14.0
21/06:30pm 21.8 25.0 20.6 93 0.8 ENE 4 7 2 4 - - 13.8
21/06:00pm 21.4 24.2 20.4 94 0.6 NE 6 9 3 5 - - 13.8
21/05:30pm 21.1 23.3 20.3 95 0.5 ENE 9 15 5 8 - - 13.6

Other Formats:

Comma delimited format used in spreadsheet applications
http://www.bom.gov.au/fwo/IDV60801/IDV60801.95867.axf

JavaScript Object Notation format (JSON) in row-major order
http://www.bom.gov.au/fwo/IDV60801/IDV60801.95867.json